Lerna, Illinois
Current Conditions -  °F | °C
As of 8:53 AM on Thursday 30 Oct 2014 (Local Time) from KMTO Reporting Station
Clear Clear  
Wind Chill:   Ceiling: Unl
Heat Index:   Visibility: 10mi
Dew Point:   Wind: 6mph
Humidity: 82%   Direction: 170°S
Pressure: 30.17"   Gusts: NA
Location:  39.42°N, 88.29°W
Report Text: KMTO 301353Z AUTO 17005KT 10SM CLR 06/03 A3017 RMK AO2 SLP219 T00560028
Loading
Personal Weather Stations






























Interactive Weather Map
Tropical Storm Tracking
New forecast layout! Learn more

10-Day Weather Forecast

Advertisements
Track Severe Weather on mobile